Time;durP1;ratioP1;P1;durP2;ratioP2;P2;SDS_P1;SDS_P2;PMS_P1;PMS_P2;Temp;Humidity;BMP_temperature;BMP_pressure;BME280_temperature;BME280_humidity;BME280_pressure;Samples;Min_cycle;Max_cycle;Signal;HPM_P1;HPM_P2
2023/05/26 00:00:56;;;;;;;;;;;;;;;21.51;33.06;97804.91;5004920;28;1305;-79
2023/05/26 00:03:22;;;;;;;;;;;;;;;21.50;33.18;97800.50;5019797;28;938;-79
2023/05/26 00:05:47;;;;;;;;;;;;;;;21.56;33.15;97798.69;5020412;28;922;-78
2023/05/26 00:08:13;;;;;;;;;;;;;;;21.91;32.14;97798.06;5003499;28;975;-79
2023/05/26 00:10:38;;;;;;;;;;;;;;;21.67;32.67;97798.38;5035411;28;962;-79
2023/05/26 00:13:04;;;;;;;;;;;;;;;21.47;33.18;97790.06;5039048;28;1907;-79
2023/05/26 00:15:30;;;;;;;;;;;;;;;21.63;32.52;97797.69;5007720;28;1001;-78
2023/05/26 00:17:58;;;;;;;;;;;;;;;21.79;32.35;97802.47;5019935;28;1174;-78
2023/05/26 00:20:24;;;;;;;;;;;;;;;21.62;32.45;97790.44;5020018;28;1241;-78
2023/05/26 00:22:50;;;;;;;;;;;;;;;21.45;32.97;97786.91;4987212;28;1219;-78
2023/05/26 00:25:16;;;;;;;;;;;;;;;22.34;32.37;97781.31;5003947;28;908;-79
2023/05/26 00:27:41;;;;;;;;;;;;;;;22.81;32.09;97772.03;4986445;28;1818;-79
2023/05/26 00:30:07;;;;;;;;;;;;;;;22.84;32.54;97779.59;5052770;28;1414;-80
2023/05/26 00:32:33;;;;;;;;;;;;;;;22.67;33.12;97772.50;5046669;28;1322;-79
2023/05/26 00:34:58;;;;;;;;;;;;;;;22.19;33.62;97777.38;5062324;28;1922;-78
2023/05/26 00:37:25;;;;;;;;;;;;;;;21.87;33.89;97774.75;5047263;28;1494;-78
2023/05/26 00:39:50;;;;;;;;;;;;;;;21.70;33.64;97774.03;5045915;28;995;-79
2023/05/26 00:42:16;;;;;;;;;;;;;;;21.82;33.06;97771.22;5079767;28;1950;-78
2023/05/26 00:44:43;;;;;;;;;;;;;;;22.05;32.73;97766.44;5062717;28;1156;-79
2023/05/26 00:47:09;;;;;;;;;;;;;;;21.85;32.97;97764.63;5064334;28;1031;-78
2023/05/26 00:49:34;;;;;;;;;;;;;;;21.74;33.02;97757.72;5075252;28;951;-79
2023/05/26 00:52:00;;;;;;;;;;;;;;;21.94;32.66;97763.16;5064424;28;1229;-78
2023/05/26 00:54:27;;;;;;;;;;;;;;;21.81;32.90;97755.47;5062553;28;1977;-79
2023/05/26 00:56:54;;;;;;;;;;;;;;;21.93;33.05;97758.75;5081753;28;1462;-78
2023/05/26 00:59:20;;;;;;;;;;;;;;;21.84;33.08;97763.03;5079526;28;1077;-79
2023/05/26 01:01:45;;;;;;;;;;;;;;;21.80;33.24;97765.19;5080994;28;939;-79
2023/05/26 01:04:11;;;;;;;;;;;;;;;21.77;33.32;97740.63;5042111;28;1660;-78
2023/05/26 01:06:37;;;;;;;;;;;;;;;21.69;33.32;97756.25;5010155;28;1338;-79
2023/05/26 01:09:03;;;;;;;;;;;;;;;21.88;32.89;97750.81;5058589;28;957;-78
2023/05/26 01:11:36;;;;;;;;;;;;;;;21.85;33.09;97733.47;5022991;28;1637;-79
2023/05/26 01:14:07;;;;;;;;;;;;;;;21.88;33.20;97728.16;5022045;28;1902;-79
2023/05/26 01:16:33;;;;;;;;;;;;;;;21.87;33.24;97733.03;5024466;28;931;-79
2023/05/26 01:19:20;;;;;;;;;;;;;;;21.93;32.98;97733.25;5024997;28;976;-79
2023/05/26 01:21:46;;;;;;;;;;;;;;;21.90;32.89;97739.81;5010733;28;1175;-78
2023/05/26 01:24:49;;;;;;;;;;;;;;;21.81;33.08;97746.16;5025721;28;996;-78
2023/05/26 01:27:18;;;;;;;;;;;;;;;21.84;32.90;97750.94;4967512;28;1889;-79
2023/05/26 01:29:43;;;;;;;;;;;;;;;21.95;32.70;97745.72;4967383;28;940;-78
2023/05/26 01:32:13;;;;;;;;;;;;;;;21.88;32.73;97751.63;4984704;28;1287;-79
2023/05/26 01:34:40;;;;;;;;;;;;;;;21.99;32.45;97756.94;4976362;28;1906;-78
2023/05/26 01:37:06;;;;;;;;;;;;;;;21.88;32.39;97756.50;5007530;28;1250;-79
2023/05/26 01:39:31;;;;;;;;;;;;;;;21.63;32.98;97752.38;4989684;28;1248;-78
2023/05/26 01:42:00;;;;;;;;;;;;;;;21.92;32.48;97757.97;4968014;28;1662;-79
2023/05/26 01:44:26;;;;;;;;;;;;;;;21.91;32.31;97755.56;4967110;28;1038;-77
2023/05/26 01:46:52;;;;;;;;;;;;;;;21.94;32.25;97754.69;4968217;28;1159;-78
2023/05/26 01:49:18;;;;;;;;;;;;;;;21.89;32.13;97769.41;4967231;28;1148;-79
2023/05/26 01:51:47;;;;;;;;;;;;;;;21.65;32.88;97769.72;4967670;28;1051;-79
2023/05/26 01:54:12;;;;;;;;;;;;;;;21.83;32.47;97789.78;4967085;28;1948;-79
2023/05/26 01:56:38;;;;;;;;;;;;;;;21.82;32.41;97782.53;4966817;28;1915;-79
2023/05/26 01:59:03;;;;;;;;;;;;;;;21.78;32.11;97796.00;5041619;28;1107;-79
2023/05/26 02:01:29;;;;;;;;;;;;;;;21.79;32.30;97786.28;5029915;28;1476;-79
2023/05/26 02:03:55;;;;;;;;;;;;;;;21.84;32.06;97796.25;5021936;28;933;-78
2023/05/26 02:06:21;;;;;;;;;;;;;;;21.80;32.08;97779.34;5003495;28;1295;-79
2023/05/26 02:08:47;;;;;;;;;;;;;;;21.81;31.91;97780.97;4985930;28;1102;-79
2023/05/26 02:11:12;;;;;;;;;;;;;;;21.85;31.83;97783.66;4986768;28;1397;-79
2023/05/26 02:13:38;;;;;;;;;;;;;;;21.52;32.35;97781.03;5000963;28;1950;-78
2023/05/26 02:16:04;;;;;;;;;;;;;;;22.02;31.53;97773.00;5022802;28;1263;-79
2023/05/26 02:18:29;;;;;;;;;;;;;;;21.93;31.55;97776.53;5021090;28;966;-79
2023/05/26 02:20:55;;;;;;;;;;;;;;;21.99;31.48;97774.72;5023704;28;959;-78
2023/05/26 02:23:20;;;;;;;;;;;;;;;22.03;31.57;97780.28;5021067;28;1189;-79
2023/05/26 02:25:46;;;;;;;;;;;;;;;21.66;32.13;97785.47;5021661;28;1711;-78
2023/05/26 02:28:11;;;;;;;;;;;;;;;21.69;32.08;97793.06;5020824;28;1062;-79
2023/05/26 02:30:37;;;;;;;;;;;;;;;21.64;32.26;97793.59;5005628;28;1352;-79
2023/05/26 02:33:03;;;;;;;;;;;;;;;21.77;31.56;97799.31;5021987;28;1967;-79
2023/05/26 02:35:29;;;;;;;;;;;;;;;21.69;31.66;97798.72;4987673;28;951;-78
2023/05/26 02:37:55;;;;;;;;;;;;;;;21.89;31.54;97792.06;4983421;28;1151;-79
2023/05/26 02:40:20;;;;;;;;;;;;;;;22.00;31.04;97784.00;5001617;28;1296;-78
2023/05/26 02:42:46;;;;;;;;;;;;;;;21.55;32.09;97790.63;5005720;28;1341;-77
2023/05/26 02:45:11;;;;;;;;;;;;;;;21.79;31.71;97791.94;5008503;28;1204;-78
2023/05/26 02:47:37;;;;;;;;;;;;;;;21.96;31.35;97789.00;5041648;28;1269;-79
2023/05/26 02:50:03;;;;;;;;;;;;;;;21.82;31.40;97802.38;5040550;28;984;-79
2023/05/26 02:52:31;;;;;;;;;;;;;;;21.68;31.68;97799.97;5041417;28;1435;-78
2023/05/26 02:54:57;;;;;;;;;;;;;;;21.53;32.06;97795.97;5036555;28;1910;-78
2023/05/26 02:57:23;;;;;;;;;;;;;;;21.67;31.84;97791.94;5003453;28;1871;-79
2023/05/26 02:59:48;;;;;;;;;;;;;;;21.76;31.62;97790.03;5039239;28;1691;-78
2023/05/26 03:02:14;;;;;;;;;;;;;;;22.23;31.81;97792.22;5023466;28;1460;-78
2023/05/26 03:04:40;;;;;;;;;;;;;;;22.82;31.83;97784.94;5038920;28;1709;-78
2023/05/26 03:07:08;;;;;;;;;;;;;;;22.85;32.73;97783.25;5025308;28;1155;-78
2023/05/26 03:09:34;;;;;;;;;;;;;;;22.95;32.95;97789.81;5023850;28;1285;-78
2023/05/26 03:12:06;;;;;;;;;;;;;;;22.04;34.01;97781.88;5028145;28;1222;-79
2023/05/26 03:14:33;;;;;;;;;;;;;;;22.17;33.38;97793.22;5043181;28;1906;-78
2023/05/26 03:17:00;;;;;;;;;;;;;;;21.76;33.62;97789.19;5045006;28;1126;-79
2023/05/26 03:19:26;;;;;;;;;;;;;;;21.81;33.42;97786.63;5027843;28;1454;-79
2023/05/26 03:21:55;;;;;;;;;;;;;;;21.88;33.09;97796.16;5028407;28;1272;-79
2023/05/26 03:24:21;;;;;;;;;;;;;;;21.99;32.71;97796.59;5043495;28;916;-79
2023/05/26 03:26:46;;;;;;;;;;;;;;;21.92;33.06;97799.66;5044661;28;1379;-79
2023/05/26 03:29:13;;;;;;;;;;;;;;;21.65;33.46;97795.19;5043257;28;1961;-79
2023/05/26 03:31:39;;;;;;;;;;;;;;;21.92;32.78;97791.16;5044676;28;1183;-79
2023/05/26 03:34:05;;;;;;;;;;;;;;;21.85;33.25;97787.28;5043300;28;1984;-79
2023/05/26 03:36:30;;;;;;;;;;;;;;;21.82;33.20;97788.22;5045109;28;1202;-79
2023/05/26 03:39:06;;;;;;;;;;;;;;;22.05;32.67;97781.41;5043292;28;983;-79
2023/05/26 03:41:33;;;;;;;;;;;;;;;21.93;32.63;97793.53;5040752;28;1372;-79
2023/05/26 03:43:58;;;;;;;;;;;;;;;21.95;32.57;97796.69;5042714;28;2011;-79
2023/05/26 03:46:25;;;;;;;;;;;;;;;21.82;33.25;97788.22;5044191;28;1098;-78
2023/05/26 03:48:50;;;;;;;;;;;;;;;21.61;33.40;97788.88;5042634;28;922;-78
2023/05/26 03:51:16;;;;;;;;;;;;;;;21.79;32.87;97788.31;5044352;28;1265;-79
2023/05/26 03:53:42;;;;;;;;;;;;;;;22.10;32.40;97782.88;5039191;28;1903;-79
2023/05/26 03:56:08;;;;;;;;;;;;;;;22.03;32.54;97785.97;5025374;28;1382;-79
2023/05/26 03:58:33;;;;;;;;;;;;;;;21.86;32.96;97793.75;5006410;28;1193;-79
2023/05/26 04:00:59;;;;;;;;;;;;;;;21.82;32.92;97793.88;5008737;28;1143;-79
2023/05/26 04:03:26;;;;;;;;;;;;;;;22.10;32.35;97789.38;5038950;28;978;-79
2023/05/26 04:05:52;;;;;;;;;;;;;;;22.02;32.39;97802.16;5007885;28;1056;-78
2023/05/26 04:08:17;;;;;;;;;;;;;;;21.81;32.95;97814.13;5015000;28;1335;-78
2023/05/26 04:10:43;;;;;;;;;;;;;;;21.88;32.83;97813.13;5043574;28;1256;-78
2023/05/26 04:13:09;;;;;;;;;;;;;;;21.63;33.19;97811.84;5070232;28;1968;-79
2023/05/26 04:15:34;;;;;;;;;;;;;;;21.68;33.10;97811.28;5080619;28;1224;-78
2023/05/26 04:18:00;;;;;;;;;;;;;;;21.73;33.01;97813.56;5061550;28;1414;-79
2023/05/26 04:20:26;;;;;;;;;;;;;;;22.01;32.29;97805.44;5051870;28;1254;-79
2023/05/26 04:22:51;;;;;;;;;;;;;;;21.94;32.56;97805.66;5062760;28;1264;-79
2023/05/26 04:25:17;;;;;;;;;;;;;;;21.90;32.39;97813.47;5078881;28;1287;-79
2023/05/26 04:27:58;;;;;;;;;;;;;;;21.62;32.96;97818.75;5055010;28;1438;-79
2023/05/26 04:30:39;;;;;;;;;;;;;;;21.89;32.49;97820.38;5056730;28;1225;-79
2023/05/26 04:33:22;;;;;;;;;;;;;;;21.75;32.52;97816.72;5071800;28;1938;-79
2023/05/26 04:35:55;;;;;;;;;;;;;;;21.80;32.62;97819.00;5039721;28;1311;-78
2023/05/26 04:38:21;;;;;;;;;;;;;;;21.91;32.57;97832.84;5061424;28;1331;-78
2023/05/26 04:40:48;;;;;;;;;;;;;;;21.81;32.83;97831.94;5080381;28;1259;-78
2023/05/26 04:43:14;;;;;;;;;;;;;;;22.11;32.45;97829.84;5053815;28;1251;-79
2023/05/26 04:45:43;;;;;;;;;;;;;;;21.82;33.06;97827.88;5049327;28;1220;-79
2023/05/26 04:48:09;;;;;;;;;;;;;;;22.00;32.72;97832.19;5058531;28;1077;-78
2023/05/26 04:50:38;;;;;;;;;;;;;;;22.03;32.68;97831.28;5060847;28;1415;-79
2023/05/26 04:53:05;;;;;;;;;;;;;;;22.12;32.65;97827.78;5079974;28;1965;-77
2023/05/26 04:55:30;;;;;;;;;;;;;;;22.20;32.36;97835.63;5065100;28;1239;-79
2023/05/26 04:57:56;;;;;;;;;;;;;;;21.94;32.77;97836.81;5063959;28;1183;-80
2023/05/26 05:00:22;;;;;;;;;;;;;;;21.95;32.98;97830.69;5064237;28;1225;-79
2023/05/26 05:02:55;;;;;;;;;;;;;;;22.02;32.73;97824.00;5083223;28;1142;-80
2023/05/26 05:05:42;;;;;;;;;;;;;;;22.23;32.57;97839.59;5067415;28;1242;-79
2023/05/26 05:08:08;;;;;;;;;;;;;;;22.14;32.50;97848.78;5065473;28;1007;-79
2023/05/26 05:10:34;;;;;;;;;;;;;;;22.11;32.78;97838.34;5066525;28;1382;-79
2023/05/26 05:13:00;;;;;;;;;;;;;;;21.96;33.01;97845.66;5065905;28;1100;-80
2023/05/26 05:15:26;;;;;;;;;;;;;;;21.85;33.28;97843.94;5026337;28;1237;-80
2023/05/26 05:17:51;;;;;;;;;;;;;;;21.84;33.60;97845.19;4986918;28;1218;-79
2023/05/26 05:20:17;;;;;;;;;;;;;;;21.73;33.90;97841.09;4986606;28;1135;-79
2023/05/26 05:22:46;;;;;;;;;;;;;;;21.94;33.29;97839.66;4983548;28;925;-79
2023/05/26 05:25:16;;;;;;;;;;;;;;;21.98;33.49;97840.34;4979662;28;1217;-80
2023/05/26 05:27:42;;;;;;;;;;;;;;;22.02;33.20;97841.00;4980849;28;1246;-79
2023/05/26 05:30:08;;;;;;;;;;;;;;;22.10;33.14;97842.38;4964530;29;1011;-79
2023/05/26 05:32:34;;;;;;;;;;;;;;;22.02;33.47;97841.00;4948984;29;1668;-79
2023/05/26 05:34:59;;;;;;;;;;;;;;;21.77;33.87;97839.75;4964268;29;1891;-79
2023/05/26 05:37:25;;;;;;;;;;;;;;;22.15;33.06;97838.22;4964827;29;1206;-80
2023/05/26 05:39:51;;;;;;;;;;;;;;;22.07;32.96;97837.63;4963877;29;1109;-80
2023/05/26 05:42:17;;;;;;;;;;;;;;;22.05;33.10;97845.78;4964793;29;1324;-80
2023/05/26 05:44:43;;;;;;;;;;;;;;;22.35;32.66;97847.31;4964308;29;1224;-79
2023/05/26 05:47:08;;;;;;;;;;;;;;;22.22;32.91;97850.13;4964762;28;1402;-80
2023/05/26 05:49:54;;;;;;;;;;;;;;;22.33;32.54;97842.09;4969087;28;1058;-80
2023/05/26 05:52:20;;;;;;;;;;;;;;;22.39;32.59;97835.84;4987110;28;1192;-80
2023/05/26 05:54:45;;;;;;;;;;;;;;;21.98;33.00;97835.47;5001988;28;1906;-79
2023/05/26 05:57:11;;;;;;;;;;;;;;;21.95;33.35;97833.53;5007017;28;891;-79
2023/05/26 05:59:36;;;;;;;;;;;;;;;22.02;33.06;97836.16;5017093;28;1239;-79
2023/05/26 06:02:02;;;;;;;;;;;;;;;21.98;33.18;97829.00;5046362;28;1214;-79
2023/05/26 06:04:28;;;;;;;;;;;;;;;22.31;32.72;97836.06;5060867;28;896;-80
2023/05/26 06:06:53;;;;;;;;;;;;;;;22.16;32.87;97831.31;5046246;28;1223;-80
2023/05/26 06:09:19;;;;;;;;;;;;;;;22.13;32.92;97830.19;5024754;28;1123;-80
2023/05/26 06:11:44;;;;;;;;;;;;;;;22.23;32.87;97823.41;5042769;28;995;-80
2023/05/26 06:14:10;;;;;;;;;;;;;;;22.31;32.74;97824.72;5041796;28;1972;-80
2023/05/26 06:16:36;;;;;;;;;;;;;;;22.33;32.64;97833.59;5043066;28;1691;-80
2023/05/26 06:19:02;;;;;;;;;;;;;;;22.35;32.68;97830.28;5040908;28;880;-80
2023/05/26 06:21:28;;;;;;;;;;;;;;;22.22;32.88;97833.13;5042286;28;1113;-79
2023/05/26 06:23:56;;;;;;;;;;;;;;;22.14;33.03;97826.09;5041292;28;1166;-79
2023/05/26 06:26:22;;;;;;;;;;;;;;;22.19;33.02;97834.03;5009241;28;1188;-79
2023/05/26 06:28:47;;;;;;;;;;;;;;;22.23;33.05;97834.72;5024148;28;913;-80
2023/05/26 06:31:14;;;;;;;;;;;;;;;22.20;32.74;97841.28;5042338;28;1110;-80
2023/05/26 06:33:44;;;;;;;;;;;;;;;22.26;32.73;97839.47;5040549;28;2051;-79
2023/05/26 06:36:10;;;;;;;;;;;;;;;21.89;33.49;97843.03;5045622;28;1086;-80
2023/05/26 06:38:36;;;;;;;;;;;;;;;22.26;32.74;97838.69;5044054;28;1229;-79
2023/05/26 06:41:06;;;;;;;;;;;;;;;22.23;33.08;97833.94;5064502;28;1244;-80
2023/05/26 06:43:32;;;;;;;;;;;;;;;22.29;32.89;97840.63;5081067;28;1206;-79
2023/05/26 06:45:58;;;;;;;;;;;;;;;22.16;33.10;97834.94;5050992;28;1219;-80
2023/05/26 06:48:24;;;;;;;;;;;;;;;21.76;34.08;97835.34;5083213;28;907;-80
2023/05/26 06:51:09;;;;;;;;;;;;;;;22.17;33.21;97836.50;5028538;28;1183;-79
2023/05/26 06:53:39;;;;;;;;;;;;;;;22.27;32.92;97834.59;4984394;28;1887;-79
2023/05/26 06:56:05;;;;;;;;;;;;;;;22.25;33.11;97826.56;4971249;28;1334;-80
2023/05/26 06:58:31;;;;;;;;;;;;;;;22.45;32.80;97828.38;4984624;28;942;-79
2023/05/26 07:00:57;;;;;;;;;;;;;;;22.33;33.10;97839.25;4970666;28;1225;-79
2023/05/26 07:03:25;;;;;;;;;;;;;;;22.46;32.95;97829.94;4945383;29;1102;-80
2023/05/26 07:05:53;;;;;;;;;;;;;;;22.16;33.57;97834.94;4932697;29;1246;-80
2023/05/26 07:08:19;;;;;;;;;;;;;;;21.94;34.08;97834.78;4930260;28;979;-80
2023/05/26 07:10:44;;;;;;;;;;;;;;;22.28;33.33;97839.84;4947981;29;1125;-80
2023/05/26 07:13:11;;;;;;;;;;;;;;;22.15;33.53;97836.19;4907420;29;1980;-80
2023/05/26 07:15:37;;;;;;;;;;;;;;;22.13;33.60;97846.41;4909270;29;916;-79
2023/05/26 07:18:06;;;;;;;;;;;;;;;22.07;33.90;97848.94;4908245;29;1232;-80
2023/05/26 07:20:31;;;;;;;;;;;;;;;22.16;33.64;97846.28;4909303;29;1185;-80
2023/05/26 07:22:57;;;;;;;;;;;;;;;22.16;33.48;97849.09;4924230;29;1287;-80
2023/05/26 07:25:27;;;;;;;;;;;;;;;22.22;33.39;97844.44;4924010;29;1074;-79
2023/05/26 07:27:54;;;;;;;;;;;;;;;22.35;33.10;97836.75;4928835;28;1166;-80
2023/05/26 07:30:20;;;;;;;;;;;;;;;22.29;33.15;97841.41;4990844;28;1161;-79
2023/05/26 07:33:06;;;;;;;;;;;;;;;22.28;33.06;97837.00;5006219;28;1887;-80
2023/05/26 07:35:31;;;;;;;;;;;;;;;22.12;33.45;97842.75;5027987;28;1173;-79
2023/05/26 07:37:57;;;;;;;;;;;;;;;22.20;33.37;97840.50;5022889;28;1167;-77
2023/05/26 07:40:23;;;;;;;;;;;;;;;22.30;33.43;97840.16;5004308;28;919;-78
2023/05/26 07:42:48;;;;;;;;;;;;;;;22.21;33.37;97844.91;5003985;28;1009;-77
2023/05/26 07:45:14;;;;;;;;;;;;;;;22.19;33.44;97845.38;4971294;28;1225;-76
2023/05/26 07:47:40;;;;;;;;;;;;;;;22.00;34.05;97849.19;4966015;28;1139;-78
2023/05/26 07:50:06;;;;;;;;;;;;;;;22.18;33.71;97840.97;4960043;28;976;-76
2023/05/26 07:52:31;;;;;;;;;;;;;;;22.26;33.51;97878.34;5004553;28;1224;-77
2023/05/26 07:54:58;;;;;;;;;;;;;;;22.17;33.68;97853.53;5003716;28;1907;-78
2023/05/26 07:57:23;;;;;;;;;;;;;;;22.20;33.54;97852.63;5021369;28;1006;-76
2023/05/26 07:59:49;;;;;;;;;;;;;;;22.49;32.93;97851.72;4987526;28;1059;-77
2023/05/26 08:02:14;;;;;;;;;;;;;;;22.51;32.79;97855.69;5021267;28;920;-78
2023/05/26 08:04:40;;;;;;;;;;;;;;;22.51;32.69;97854.91;5020211;28;1026;-77
2023/05/26 08:07:06;;;;;;;;;;;;;;;22.48;32.57;97864.28;4965420;28;995;-77
2023/05/26 08:09:31;;;;;;;;;;;;;;;22.34;33.03;97857.84;4964172;28;968;-76
2023/05/26 08:11:57;;;;;;;;;;;;;;;22.29;33.03;97858.41;4982241;28;1147;-77
2023/05/26 08:14:23;;;;;;;;;;;;;;;22.19;33.28;97856.72;4982230;28;1948;-78
2023/05/26 08:16:49;;;;;;;;;;;;;;;22.34;32.97;97857.84;4985099;28;969;-77
2023/05/26 08:19:14;;;;;;;;;;;;;;;22.16;33.33;97863.28;5013614;28;980;-77
2023/05/26 08:21:39;;;;;;;;;;;;;;;22.36;33.08;97866.69;5040834;28;1045;-78
2023/05/26 08:24:05;;;;;;;;;;;;;;;22.43;32.82;97859.97;5022718;28;1199;-76
2023/05/26 08:26:32;;;;;;;;;;;;;;;22.38;32.74;97868.25;5040118;28;1040;-78
2023/05/26 08:28:58;;;;;;;;;;;;;;;22.49;32.63;97880.09;5023214;28;1428;-77
2023/05/26 08:31:24;;;;;;;;;;;;;;;22.35;32.94;97875.66;5040776;28;1223;-77
2023/05/26 08:33:49;;;;;;;;;;;;;;;22.09;33.56;97874.81;5022877;28;1997;-78
2023/05/26 08:36:15;;;;;;;;;;;;;;;22.31;33.05;97875.75;5007695;28;1414;-78
2023/05/26 08:38:40;;;;;;;;;;;;;;;22.44;32.67;97874.97;5064710;28;898;-77
2023/05/26 08:41:06;;;;;;;;;;;;;;;22.27;33.06;97880.72;5065412;28;1220;-78
2023/05/26 08:43:44;;;;;;;;;;;;;;;22.42;32.78;97885.97;5080909;28;956;-78
2023/05/26 08:46:13;;;;;;;;;;;;;;;22.32;32.88;97877.34;5082004;28;950;-79
2023/05/26 08:48:39;;;;;;;;;;;;;;;22.29;33.19;97877.47;5062919;28;1127;-78
2023/05/26 08:51:05;;;;;;;;;;;;;;;22.29;33.17;97878.25;5066138;28;1206;-79
2023/05/26 08:53:31;;;;;;;;;;;;;;;22.18;33.09;97879.84;5079719;28;1898;-78
2023/05/26 08:55:57;;;;;;;;;;;;;;;22.23;33.15;97882.91;5082051;28;960;-79
2023/05/26 08:58:22;;;;;;;;;;;;;;;22.50;32.60;97878.81;5079651;28;850;-79
2023/05/26 09:00:48;;;;;;;;;;;;;;;22.16;33.23;97877.44;5065003;28;946;-78
2023/05/26 09:03:13;;;;;;;;;;;;;;;22.29;33.11;97866.91;5079609;28;1097;-79
2023/05/26 09:05:39;;;;;;;;;;;;;;;22.55;32.60;97872.59;5080105;28;1016;-78
2023/05/26 09:08:04;;;;;;;;;;;;;;;22.49;32.69;97863.06;5081482;28;914;-79
2023/05/26 09:10:30;;;;;;;;;;;;;;;22.50;32.68;97859.78;5079917;28;1305;-78
2023/05/26 09:13:05;;;;;;;;;;;;;;;22.46;32.97;97869.63;5039079;28;983;-79
2023/05/26 09:15:31;;;;;;;;;;;;;;;22.57;32.60;97864.41;5023142;28;1906;-79
2023/05/26 09:18:15;;;;;;;;;;;;;;;22.55;32.60;97861.25;5023008;28;920;-79
2023/05/26 09:20:41;;;;;;;;;;;;;;;22.29;32.96;97864.09;5023209;28;1239;-79
2023/05/26 09:23:06;;;;;;;;;;;;;;;22.10;33.38;97868.72;5022579;28;928;-79
2023/05/26 09:25:35;;;;;;;;;;;;;;;22.05;33.77;97863.56;5039905;28;824;-78
2023/05/26 09:28:04;;;;;;;;;;;;;;;22.03;33.55;97865.28;5023420;28;902;-79
2023/05/26 09:30:34;;;;;;;;;;;;;;;22.27;33.05;97860.88;5023411;28;946;-79
2023/05/26 09:32:59;;;;;;;;;;;;;;;22.25;33.08;97859.78;5015228;28;1444;-78
2023/05/26 09:35:25;;;;;;;;;;;;;;;22.55;32.59;97858.41;5028324;28;1914;-78
2023/05/26 09:37:50;;;;;;;;;;;;;;;22.46;32.82;97858.28;5013458;28;1329;-79
2023/05/26 09:40:18;;;;;;;;;;;;;;;22.46;32.58;97852.63;5016131;28;1083;-79
2023/05/26 09:42:47;;;;;;;;;;;;;;;22.53;32.63;97858.06;5037466;28;1288;-79
2023/05/26 09:45:13;;;;;;;;;;;;;;;22.33;32.89;97850.59;5061752;28;1296;-78
2023/05/26 09:47:38;;;;;;;;;;;;;;;21.95;33.41;97855.41;5046432;28;1294;-78
2023/05/26 09:50:05;;;;;;;;;;;;;;;22.17;33.21;97862.03;5069693;28;1328;-79
2023/05/26 09:52:30;;;;;;;;;;;;;;;22.32;33.07;97846.16;5050692;28;1246;-78
2023/05/26 09:54:56;;;;;;;;;;;;;;;22.48;32.72;97833.09;5060252;28;1910;-79
2023/05/26 09:57:22;;;;;;;;;;;;;;;22.61;32.72;97834.69;5046285;28;1365;-80
2023/05/26 09:59:47;;;;;;;;;;;;;;;22.34;33.10;97840.84;5018806;28;1195;-79
2023/05/26 10:02:18;;;;;;;;;;;;;;;22.18;33.36;97832.47;5046305;28;1352;-78
2023/05/26 10:04:44;;;;;;;;;;;;;;;22.34;33.15;97817.38;5050487;28;1295;-79
2023/05/26 10:07:10;;;;;;;;;;;;;;;22.21;33.25;97827.91;5025159;28;1252;-79
2023/05/26 10:09:36;;;;;;;;;;;;;;;22.18;33.13;97832.47;5020368;28;1238;-79
2023/05/26 10:12:02;;;;;;;;;;;;;;;22.40;32.75;97820.44;5038310;28;1268;-79
2023/05/26 10:14:28;;;;;;;;;;;;;;;22.32;33.11;97806.47;5044577;28;2375;-78
2023/05/26 10:16:53;;;;;;;;;;;;;;;22.42;32.67;97813.03;5039507;28;1174;-78
2023/05/26 10:19:19;;;;;;;;;;;;;;;22.47;32.41;97814.50;5015987;28;1242;-79
2023/05/26 10:21:47;;;;;;;;;;;;;;;22.36;32.49;97815.66;5018804;28;1187;-78
2023/05/26 10:24:14;;;;;;;;;;;;;;;22.56;32.40;97808.94;5032976;28;1391;-79
2023/05/26 10:26:39;;;;;;;;;;;;;;;22.23;33.06;97829.06;5014797;28;1170;-80
2023/05/26 10:29:05;;;;;;;;;;;;;;;22.25;32.99;97831.44;5060447;28;1206;-79
2023/05/26 10:31:33;;;;;;;;;;;;;;;22.20;32.90;97824.28;5040055;28;1285;-79
2023/05/26 10:33:58;;;;;;;;;;;;;;;22.37;32.67;97827.78;5037255;28;1900;-79
2023/05/26 10:36:24;;;;;;;;;;;;;;;22.25;33.25;97820.09;5038914;28;1175;-79
2023/05/26 10:38:53;;;;;;;;;;;;;;;22.19;33.11;97811.38;5044699;28;1296;-79
2023/05/26 10:41:36;;;;;;;;;;;;;;;22.04;33.49;97811.00;5043272;28;1277;-79
2023/05/26 10:44:02;;;;;;;;;;;;;;;22.23;33.05;97811.25;5061116;28;1269;-79
2023/05/26 10:46:38;;;;;;;;;;;;;;;22.54;32.38;97817.13;5045346;28;1253;-78
2023/05/26 10:49:03;;;;;;;;;;;;;;;22.36;32.48;97815.66;5012636;28;1167;-79
2023/05/26 10:51:32;;;;;;;;;;;;;;;22.25;32.78;97815.22;5016018;28;1236;-78
2023/05/26 10:53:57;;;;;;;;;;;;;;;22.02;32.96;97812.69;5048845;28;1958;-78
2023/05/26 10:56:49;;;;;;;;;;;;;;;22.28;32.57;97813.53;4990516;28;1317;-78
2023/05/26 10:59:21;;;;;;;;;;;;;;;22.38;32.71;97803.06;4970855;28;1373;-79
2023/05/26 11:01:50;;;;;;;;;;;;;;;22.40;32.32;97804.22;4954520;28;1239;-78
2023/05/26 11:04:16;;;;;;;;;;;;;;;22.35;32.53;97797.06;4955338;28;1263;-78
2023/05/26 11:06:46;;;;;;;;;;;;;;;22.39;32.46;97790.50;4983130;28;985;-79
2023/05/26 11:09:12;;;;;;;;;;;;;;;22.36;32.34;97792.19;4993387;28;915;-80
2023/05/26 11:11:40;;;;;;;;;;;;;;;22.41;32.26;97791.63;4963561;29;822;-78
2023/05/26 11:14:06;;;;;;;;;;;;;;;22.40;32.40;97794.91;4962572;29;1985;-79
2023/05/26 11:16:35;;;;;;;;;;;;;;;21.98;33.34;97800.69;4963779;28;999;-79
2023/05/26 11:19:01;;;;;;;;;;;;;;;22.08;32.88;97799.56;4962214;28;1128;-79
2023/05/26 11:21:27;;;;;;;;;;;;;;;22.30;32.30;97783.47;4944440;29;1117;-80
2023/05/26 11:23:54;;;;;;;;;;;;;;;22.27;32.45;97783.56;4958969;29;1035;-78
2023/05/26 11:26:21;;;;;;;;;;;;;;;22.31;32.50;97768.03;4960095;29;952;-79
2023/05/26 11:28:47;;;;;;;;;;;;;;;22.23;32.40;97766.72;4926703;29;979;-78
2023/05/26 11:31:13;;;;;;;;;;;;;;;22.42;32.10;97773.34;4944087;29;1371;-79
2023/05/26 11:33:39;;;;;;;;;;;;;;;22.43;32.04;97774.16;4942639;29;1902;-79
2023/05/26 11:36:06;;;;;;;;;;;;;;;22.47;31.93;97769.94;4975143;28;945;-78
2023/05/26 11:38:31;;;;;;;;;;;;;;;22.46;31.76;97767.56;5000397;28;889;-79
2023/05/26 11:40:57;;;;;;;;;;;;;;;22.43;31.71;97757.94;4986740;28;1060;-78
2023/05/26 11:43:23;;;;;;;;;;;;;;;22.35;32.00;97765.09;4968159;28;961;-79
2023/05/26 11:45:52;;;;;;;;;;;;;;;22.20;32.22;97750.59;4970008;28;1286;-79
2023/05/26 11:48:17;;;;;;;;;;;;;;;22.59;31.52;97759.84;4984260;28;911;-79
2023/05/26 11:50:43;;;;;;;;;;;;;;;22.44;31.65;97747.41;4969713;28;1067;-78
2023/05/26 11:53:08;;;;;;;;;;;;;;;22.27;32.23;97749.56;4984164;28;1180;-78
2023/05/26 11:55:35;;;;;;;;;;;;;;;22.20;32.28;97742.09;4953119;28;1910;-78
2023/05/26 11:58:00;;;;;;;;;;;;;;;22.21;32.56;97751.41;4974293;28;1193;-79
2023/05/26 12:00:26;;;;;;;;;;;;;;;22.53;31.74;97751.09;5075053;28;1257;-77
2023/05/26 12:02:51;;;;;;;;;;;;;;;22.31;32.42;97745.38;5083776;28;986;-79
2023/05/26 12:05:22;;;;;;;;;;;;;;;22.04;32.49;97736.53;5083805;28;967;-78
2023/05/26 12:08:03;;;;;;;;;;;;;;;22.28;32.15;97737.78;5084463;28;1039;-78
2023/05/26 12:10:30;;;;;;;;;;;;;;;22.08;32.40;97725.88;5080674;28;1097;-79
2023/05/26 12:12:55;;;;;;;;;;;;;;;22.04;32.55;97725.22;5063966;28;983;-79
2023/05/26 12:15:21;;;;;;;;;;;;;;;22.10;32.72;97729.03;5080947;28;1921;-78
2023/05/26 12:17:47;;;;;;;;;;;;;;;22.16;32.41;97720.78;5063842;28;1421;-79
2023/05/26 12:20:19;;;;;;;;;;;;;;;22.43;31.80;97723.13;5064035;28;933;-78
2023/05/26 12:22:44;;;;;;;;;;;;;;;22.23;32.06;97715.69;5064716;28;1138;-78
2023/05/26 12:25:10;;;;;;;;;;;;;;;22.08;32.27;97694.72;5063205;28;1016;-78
2023/05/26 12:27:38;;;;;;;;;;;;;;;22.19;32.45;97698.00;5064353;28;995;-79
2023/05/26 12:30:26;;;;;;;;;;;;;;;22.34;32.03;97704.78;5039101;28;992;-79
2023/05/26 12:32:51;;;;;;;;;;;;;;;22.31;32.01;97700.03;5020401;28;1016;-78
2023/05/26 12:35:17;;;;;;;;;;;;;;;22.09;32.47;97694.25;5004113;28;1918;-79
2023/05/26 12:37:43;;;;;;;;;;;;;;;22.25;32.38;97696.19;4988109;28;1200;-79
2023/05/26 12:40:08;;;;;;;;;;;;;;;22.28;32.24;97688.81;5003798;28;946;-79
2023/05/26 12:42:36;;;;;;;;;;;;;;;22.47;31.87;97684.09;4988951;28;928;-79
2023/05/26 12:45:05;;;;;;;;;;;;;;;22.29;32.44;97690.41;5003398;28;1652;-79
2023/05/26 12:47:31;;;;;;;;;;;;;;;22.26;32.32;97692.09;5004917;28;915;-79
2023/05/26 12:49:56;;;;;;;;;;;;;;;22.34;32.28;97682.09;4987471;28;1130;-78
2023/05/26 12:52:22;;;;;;;;;;;;;;;22.47;31.77;97684.09;4982210;28;1177;-78
2023/05/26 12:54:48;;;;;;;;;;;;;;;22.43;31.77;97674.91;4965057;28;1956;-79
2023/05/26 12:57:13;;;;;;;;;;;;;;;22.36;31.89;97679.59;4950389;28;1014;-79
2023/05/26 12:59:39;;;;;;;;;;;;;;;22.51;31.63;97679.09;4964787;28;1011;-78